Metar Cercanos

 

LEPA - Palma De Mallorc, Spain
Distance from station: ONO 38km
Actualización: Sat, 27-Nov-2021 3:30pm CET
Muy nuboso
Muy nuboso
 Viento del NNO
Viento: NNO 17 km/h
Temperatura: 15°C
Rocío: 10°C
Humedad: 72%
Barómetro: 999 hPa
Clouds: Muy nuboso
Visibility: 10 km
Cloud details: Few Clouds 914 m
Parcialmente nuboso 1219 m
Muy nuboso 2073 m
2021/11/27 14:30 LEPA 271430Z 33009KT 9999 FEW030TCU SCT040 BKN068 15/10 Q0999 TEMPO 4000 SHRA FEW020CB
LEMH - Mahon/Menorca Is, Spain
Distance from station: ENE 105km
Actualización: Sat, 27-Nov-2021 3:30pm CET
Few Clouds
Few Clouds
 Viento del O
Viento: O 26 km/h, Racha: 44 km/h
Temperatura: 15°C
Rocío: 8°C
Humedad: 63%
Barómetro: 998 hPa
Clouds: Few Clouds
Visibility: 10 km
Cloud details: Parcialmente nuboso 914 m
Few Clouds 1067 m
2021/11/27 14:30 LEMH 271430Z 26014G24KT 220V300 9999 SCT030 FEW035TCU 15/08 Q0998
 
LEIB - Ibiza/Es Codola, Spain
Distance from station: OSO 165km
Actualización: Sat, 27-Nov-2021 3:30pm CET
Few Clouds
Few Clouds
 Viento del O
Viento: O 33 km/h, Racha: 52 km/h
Temperatura: 15°C
Rocío: 4°C
Humedad: 48%
Barómetro: 1001 hPa
Clouds: Few Clouds
Visibility: 10 km
Cloud details: Few Clouds 1372 m
2021/11/27 14:30 LEIB 271430Z 27018G28KT 240V300 9999 FEW045 15/04 Q1001 NOSIG
LEBL - Barcelona Airpor, Spain
Distance from station: NNO 225km
Actualización: Sat, 27-Nov-2021 3:30pm CET
Parcialmente nuboso
Parcialmente nuboso
 Viento del ONO
Viento: ONO 20 km/h
Temperatura: 13°C
Rocío: 4°C
Humedad: 55%
Barómetro: 997 hPa
Clouds: Parcialmente nuboso
Visibility: 10 km
Cloud details: Few Clouds 914 m
Parcialmente nuboso 1524 m
2021/11/27 14:30 LEBL 271430Z 30011KT 270V350 9999 FEW030 SCT050 13/04 Q0997 NOSIG
 
LEVC - Valencia (civ/Mi, Spain
Distance from station: NO 188km
Actualización: Sat, 27-Nov-2021 3:30pm CET
Parcialmente nuboso
Parcialmente nuboso
 Viento del ONO
Viento: ONO 19 km/h
Temperatura: 9°C
Sensación frio: 6°C
Rocío: 5°C
Humedad: 76%
Barómetro: 1003 hPa
Clouds: Parcialmente nuboso
Visibility: 10 km
Cloud details: Parcialmente nuboso 1219 m
2021/11/27 14:30 LEVC 271430Z 29010KT 250V320 9999 SCT040 09/05 Q1003 NOSIG
LEGE - Gerona/Costa Bra, Spain
Distance from station: N 276km
Actualización: Sat, 27-Nov-2021 3:30pm CET
Muy nuboso
Muy nuboso
 Viento del NNE
Viento: NNE 6 km/h
Temperatura: 10°C
Rocío: 5°C
Humedad: 71%
Barómetro: 997 hPa
Clouds: Muy nuboso
Visibility: 10 km
Cloud details: Muy nuboso 1372 m
2021/11/27 14:30 LEGE 271430Z 02003KT 310V080 9999 BKN045 10/05 Q0997
 
LEAL - Alicante/El Alte, Spain
Distance from station: OSO 344km
Actualización: Sat, 27-Nov-2021 3:30pm CET
Parcialmente nuboso
Parcialmente nuboso
 Viento del NO
Viento: NO 22 km/h
Temperatura: 15°C
Rocío: 2°C
Humedad: 42%
Barómetro: 1003 hPa
Clouds: Parcialmente nuboso
Visibility: 10 km
Cloud details: Few Clouds 914 m
Parcialmente nuboso 1981 m
2021/11/27 14:30 LEAL 271430Z 32012KT 280V350 9999 FEW030 SCT065 15/02 Q1003 NOSIG
LEAM - Almeria Airport, Spain
Distance from station: SSO 56km
Actualización: Sat, 27-Nov-2021 3:30pm CET
Despejado
Despejado
 Viento del OSO
Viento: OSO 28 km/h
Temperatura: 17°C
Rocío: 4°C
Humedad: 42%
Barómetro: 1005 hPa
Resumen: Despejado
Visibility: greater than 10 km
2021/11/27 14:30 LEAM 271430Z 24015KT CAVOK 17/04 Q1005
 
LEZG - Zaragoza (mil/Ci, Spain
Distance from station: NO 431km
Actualización: Sat, 27-Nov-2021 3:30pm CET
Few Clouds
Few Clouds
 Viento del ONO
Viento: ONO 43 km/h
Temperatura: 8°C
Sensación frio: 3°C
Rocío: 2°C
Humedad: 66%
Barómetro: 1005 hPa
Clouds: Few Clouds
Visibility: 10 km
Cloud details: Few Clouds 762 m
2021/11/27 14:30 LEZG 271430Z 30023KT 9999 FEW025 08/02 Q1005
LEMD - Madrid/Barajas, Spain
Distance from station: ONO 234km
Actualización: Sat, 27-Nov-2021 3:30pm CET
Few Clouds
Few Clouds
 Viento del NNO
Viento: NNO 30 km/h
Temperatura: 8°C
Sensación frio: 4°C
Rocío: -4°C
Humedad: 43%
Barómetro: 1007 hPa
Clouds: Few Clouds
Visibility: 10 km
Cloud details: Few Clouds 1829 m
2021/11/27 14:30 LEMD 271430Z 33016KT 300V010 9999 FEW060 08/M04 Q1007 NOSIG
 
LEGR - Granada Airport, Spain
Distance from station: OSO 62km
Actualización: Sat, 27-Nov-2021 3:30pm CET
Muy nuboso
Muy nuboso
 Viento del O
Viento: O 17 km/h
Temperatura: 9°C
Sensación frio: 7°C
Rocío: 3°C
Humedad: 66%
Barómetro: 1009 hPa
Clouds: Muy nuboso
Visibility: 10 km
Cloud details: Few Clouds 914 m
Muy nuboso 1372 m
2021/11/27 14:30 LEGR 271430Z 28009KT 250V320 9999 FEW030 BKN045 09/03 Q1009
LEMG - Malaga (civ/Mil), Spain
Distance from station: OSO 227km
Actualización: Sat, 27-Nov-2021 3:30pm CET
Few Clouds
Few Clouds
 Viento del NO
Viento: NO 24 km/h
Temperatura: 18°C
Rocío: 3°C
Humedad: 37%
Barómetro: 1009 hPa
Clouds: Few Clouds
Visibility: 10 km
Cloud details: Few Clouds 1524 m
2021/11/27 14:30 LEMG 271430Z 31013KT 280V340 9999 FEW050 18/03 Q1009 NOSIG
 
LEZL - Sevilla (civ/Mil, Spain
Distance from station: S 318km
Actualización: Sat, 27-Nov-2021 3:30pm CET
Parcialmente nuboso
Parcialmente nuboso
 Viento del NO
Viento: NO 20 km/h
Temperatura: 15°C
Rocío: 5°C
Humedad: 51%
Barómetro: 1011 hPa
Clouds: Parcialmente nuboso
Visibility: 10 km
Cloud details: Few Clouds 1097 m
Parcialmente nuboso 1463 m
2021/11/27 14:30 LEZL 271430Z 32011KT 280V350 9999 FEW036 SCT048 15/05 Q1011 NOSIG
LEVT - Vitoria, Spain
Distance from station: NO 226km
Actualización: Sat, 27-Nov-2021 3:30pm CET
Lluvia débil, Nieve, Cubierto
Lluvia débil, Nieve, Cubierto
 Viento del NO
Viento: NO 11 km/h
Temperatura: 2°C
Sensación frio: -1°C
Rocío: 2°C
Humedad: 100%
Barómetro: 1006 hPa
Resumen: Lluvia débil, Nieve
Clouds: Cubierto
Visibility: 7 km
Cloud details: Muy nuboso 366 m
Cubierto 549 m
2021/11/27 14:30 LEVT 271430Z 31006KT 7000 -RASN BKN012 OVC018 02/02 Q1006
 
LEBB - Bilbao/Sondica, Spain
Distance from station: NNO 235km
Actualización: Sat, 27-Nov-2021 3:30pm CET
Parcialmente nuboso
Parcialmente nuboso
 Viento del OSO
Viento: OSO 19 km/h
Temperatura: 9°C
Sensación frio: 6°C
Rocío: 6°C
Humedad: 82%
Barómetro: 1006 hPa
Clouds: Parcialmente nuboso
Visibility: 10 km
Cloud details: Few Clouds 762 m
Parcialmente nuboso 1524 m
2021/11/27 14:30 LEBB 271430Z 25010KT 210V280 9999 FEW025 SCT050 09/06 Q1006 TEMPO 3000 SHRA SCT030TCU
LESO - San Sebastian/Fu, Spain
Distance from station: N 231km
Actualización: Sat, 27-Nov-2021 3:35pm CET
Thunderstorm rain, Muy nuboso
Thunderstorm rain, Muy nuboso
 Viento del varies
Viento: varies 11 km/h, Racha: 30 km/h
Temperatura: 8°C
Sensación frio: 6°C
Rocío: 5°C
Humedad: 82%
Barómetro: 1005 hPa
Resumen: Thunderstorm Rain
Clouds: Muy nuboso
Visibility: 7 km
Cloud details: Parcialmente nuboso 823 m
Muy nuboso 1219 m
2021/11/27 14:35 LESO 271435Z VRB06G16KT 7000 TSRA SCT027CB BKN040 08/05 Q1005
 
LEVD - Valladolid(Mil/C, Spain
Distance from station: ONO 239km
Actualización: Sat, 27-Nov-2021 3:30pm CET
Few Clouds
Few Clouds
 Viento del NNO
Viento: NNO 43 km/h, Racha: 61 km/h
Temperatura: 5°C
Sensación frio: -1°C
Rocío: -2°C
Humedad: 61%
Barómetro: 1008 hPa
Clouds: Few Clouds
Visibility: 10 km
Cloud details: Few Clouds 762 m
2021/11/27 14:30 LEVD 271430Z 34023G33KT 9999 FEW025 05/M02 Q1008
LESA - Salamanca (civ/M, Spain
Distance from station: ONO 349km
Actualización: Sat, 27-Nov-2021 3:30pm CET
Parcialmente nuboso
Parcialmente nuboso
 Viento del N
Viento: N 31 km/h
Temperatura: 6°C
Sensación frio: 1°C
Rocío: -4°C
Humedad: 49%
Barómetro: 1009 hPa
Clouds: Parcialmente nuboso
Visibility: 10 km
Cloud details: Parcialmente nuboso 1280 m
2021/11/27 14:30 LESA 271430Z 35017KT 9999 SCT042 06/M04 Q1009
 
LEXJ - Santander/Paraya, Spain
Distance from station: NNO 247km
Actualización: Sat, 27-Nov-2021 3:30pm CET
Muy nuboso
Muy nuboso
 Viento del OSO
Viento: OSO 13 km/h
Temperatura: 6°C
Sensación frio: 3°C
Rocío: 4°C
Humedad: 87%
Barómetro: 1008 hPa
Clouds: Muy nuboso
Visibility: 10 km
Cloud details: Few Clouds 366 m
Few Clouds 975 m
Muy nuboso 2377 m
2021/11/27 14:30 LEXJ 271430Z 24007KT 200V270 9999 FEW012 FEW032CB BKN078 06/04 Q1008 RESHGS
LEAS - Asturias/Aviles, Spain
Distance from station: NO 214km
Actualización: Sat, 27-Nov-2021 3:30pm CET
Parcialmente nuboso
Parcialmente nuboso
 Viento del NNO
Viento: NNO 17 km/h, Racha: 35 km/h
Temperatura: 9°C
Sensación frio: 7°C
Rocío: 2°C
Humedad: 62%
Barómetro: 1012 hPa
Clouds: Parcialmente nuboso
Visibility: 10 km
Cloud details: Parcialmente nuboso 792 m
Parcialmente nuboso 1372 m
2021/11/27 14:30 LEAS 271430Z 33009G19KT 260V050 9999 SCT026TCU SCT045 09/02 Q1012 TEMPO 3000 SHRA
 
LECO - La Coruna/Alvedr, Spain
Distance from station: ONO 222km
Actualización: Sat, 27-Nov-2021 3:30pm CET
Parcialmente nuboso
Parcialmente nuboso
 Viento del N
Viento: N 31 km/h, Racha: 52 km/h
Temperatura: 11°C
Rocío: -1°C
Humedad: 44%
Barómetro: 1016 hPa
Clouds: Parcialmente nuboso
Visibility: 10 km
Cloud details: Parcialmente nuboso 1463 m
2021/11/27 14:30 LECO 271430Z 35017G28KT 300V050 9999 SCT048 11/M01 Q1016 TEMPO 3000 SHRA SCT040TCU
LEVX - Vigo/Peinador, Spain
Distance from station: O 214km
Actualización: Sat, 27-Nov-2021 3:30pm CET
Few Clouds
Few Clouds
 Viento del N
Viento: N 11 km/h
Temperatura: 8°C
Sensación frio: 6°C
Rocío: 4°C
Humedad: 76%
Barómetro: 1016 hPa
Clouds: Few Clouds
Visibility: 10 km
Cloud details: Few Clouds 1341 m
2021/11/27 14:30 LEVX 271430Z 36006KT 320V060 9999 FEW044 08/04 Q1016 NOSIG